createdAt,value
2022-08-11T00:00:57.944Z,2.20
2022-08-11T00:01:57.922Z,2.20
2022-08-11T00:02:57.954Z,2.10
2022-08-11T00:03:57.907Z,2.30
2022-08-11T00:04:57.892Z,2.20
2022-08-11T00:05:57.900Z,2.30
2022-08-11T00:06:57.875Z,2.20
2022-08-11T00:07:57.860Z,2.30
2022-08-11T00:08:57.843Z,2.70
2022-08-11T00:09:57.844Z,2.30
2022-08-11T00:10:57.845Z,2.00
2022-08-11T00:11:58.727Z,2.40
2022-08-11T00:12:57.806Z,2.30
2022-08-11T00:13:57.796Z,2.20
2022-08-11T00:14:57.787Z,2.40
2022-08-11T00:15:57.775Z,2.50
2022-08-11T00:16:57.795Z,2.40
2022-08-11T00:17:57.753Z,2.30
2022-08-11T00:18:57.760Z,2.20
2022-08-11T00:20:13.794Z,2.40
2022-08-11T00:20:58.737Z,2.20
2022-08-11T00:22:04.661Z,2.20
2022-08-11T00:22:58.714Z,2.40
2022-08-11T00:23:57.699Z,2.50
2022-08-11T00:25:02.070Z,2.40
2022-08-11T00:25:57.685Z,2.30
2022-08-11T00:26:57.684Z,2.40
2022-08-11T00:27:57.663Z,2.40
2022-08-11T00:28:57.651Z,2.40
2022-08-11T00:29:57.642Z,2.40
2022-08-11T00:30:57.629Z,2.30
2022-08-11T00:31:57.652Z,2.30
2022-08-11T00:32:57.606Z,2.50
2022-08-11T00:33:57.604Z,2.30
2022-08-11T00:35:51.305Z,2.60
2022-08-11T00:35:58.581Z,2.50
2022-08-11T00:36:58.584Z,2.40
2022-08-11T00:37:57.559Z,2.20
2022-08-11T00:38:57.548Z,2.80
2022-08-11T00:39:57.581Z,2.50
2022-08-11T00:40:57.535Z,2.40
2022-08-11T00:41:57.545Z,2.50
2022-08-11T00:42:57.520Z,2.60
2022-08-11T00:43:57.500Z,2.50
2022-08-11T00:44:57.490Z,2.50
2022-08-11T00:45:57.477Z,2.40
2022-08-11T00:46:57.491Z,2.40
2022-08-11T00:48:00.298Z,2.20
2022-08-11T00:48:57.449Z,2.20
2022-08-11T00:49:57.449Z,2.60
2022-08-11T00:50:57.429Z,2.50
2022-08-11T00:52:05.034Z,2.60
2022-08-11T00:52:57.417Z,2.40
2022-08-11T00:53:57.401Z,2.10
2022-08-11T00:54:57.393Z,2.40
2022-08-11T00:55:57.381Z,2.20
2022-08-11T00:56:57.386Z,2.20
2022-08-11T00:57:57.366Z,2.30
2022-08-11T00:58:57.348Z,2.10
2022-08-11T00:59:57.338Z,2.20
2022-08-11T01:00:57.363Z,2.40
2022-08-11T01:01:57.343Z,2.40
2022-08-11T01:02:57.314Z,2.30
2022-08-11T01:03:57.298Z,2.50
2022-08-11T01:04:57.283Z,2.40
2022-08-11T01:05:57.281Z,2.40
2022-08-11T01:06:57.292Z,2.20
2022-08-11T01:08:02.199Z,2.30
2022-08-11T01:08:57.259Z,2.20
2022-08-11T01:09:57.239Z,2.30
2022-08-11T01:10:57.219Z,2.30
2022-08-11T01:11:57.231Z,2.40
2022-08-11T01:12:57.207Z,2.40
2022-08-11T01:13:57.225Z,2.50
2022-08-11T01:14:57.197Z,2.30
2022-08-11T01:15:57.583Z,2.30
2022-08-11T01:16:57.190Z,2.30
2022-08-11T01:17:57.158Z,2.40
2022-08-11T01:18:57.164Z,2.40
2022-08-11T01:20:45.325Z,2.30
2022-08-11T01:20:58.133Z,2.20
2022-08-11T01:21:57.147Z,2.40
2022-08-11T01:22:57.117Z,2.30
2022-08-11T01:23:57.109Z,2.40
2022-08-11T01:24:57.094Z,2.20
2022-08-11T01:25:57.908Z,2.40
2022-08-11T01:26:57.090Z,2.30
2022-08-11T01:27:57.067Z,2.40
2022-08-11T01:28:57.052Z,2.30
2022-08-11T01:29:57.077Z,2.50
2022-08-11T01:30:57.030Z,2.50
2022-08-11T01:31:57.040Z,2.30
2022-08-11T01:32:57.018Z,2.30
2022-08-11T01:33:57.002Z,2.60
2022-08-11T01:34:56.982Z,2.40
2022-08-11T01:35:56.981Z,2.40
2022-08-11T01:36:57.310Z,2.40
2022-08-11T01:37:56.964Z,2.20
2022-08-11T01:38:56.954Z,2.40
2022-08-11T01:39:57.000Z,2.40
2022-08-11T01:40:56.932Z,2.60
2022-08-11T01:41:56.937Z,2.30
2022-08-11T01:42:56.902Z,2.40
2022-08-11T01:43:56.901Z,2.50
2022-08-11T01:44:56.892Z,2.20
2022-08-11T01:45:56.892Z,2.30
2022-08-11T01:46:56.884Z,2.30
2022-08-11T01:47:56.854Z,2.30
2022-08-11T01:48:56.853Z,2.20
2022-08-11T01:50:06.968Z,2.40
2022-08-11T01:50:57.824Z,2.50
2022-08-11T01:51:56.864Z,2.60
2022-08-11T01:52:56.806Z,2.40
2022-08-11T01:53:56.825Z,2.60
2022-08-11T01:54:56.801Z,2.40
2022-08-11T01:55:56.786Z,2.30
2022-08-11T01:56:56.794Z,2.40
2022-08-11T01:57:56.784Z,2.20
2022-08-11T01:58:56.740Z,2.10
2022-08-11T01:59:56.735Z,2.30
2022-08-11T02:00:56.779Z,2.50
2022-08-11T02:01:56.743Z,2.60
2022-08-11T02:02:56.711Z,2.40
2022-08-11T02:03:56.703Z,2.40
2022-08-11T02:04:56.689Z,2.40
2022-08-11T02:05:56.682Z,2.40
2022-08-11T02:06:56.693Z,2.30
2022-08-11T02:07:56.661Z,2.50
2022-08-11T02:08:56.661Z,2.40
2022-08-11T02:09:56.638Z,2.50
2022-08-11T02:10:56.630Z,2.50
2022-08-11T02:11:56.637Z,2.50
2022-08-11T02:12:56.623Z,2.50
2022-08-11T02:13:56.600Z,2.40
2022-08-11T02:15:05.399Z,2.50
2022-08-11T02:15:56.585Z,2.40
2022-08-11T02:16:56.585Z,2.50
2022-08-11T02:17:56.567Z,2.30
2022-08-11T02:18:56.540Z,2.40
2022-08-11T02:19:56.534Z,2.30
2022-08-11T02:20:56.527Z,2.50
2022-08-11T02:21:56.543Z,2.30
2022-08-11T02:22:56.511Z,2.30
2022-08-11T02:24:06.070Z,2.50
2022-08-11T02:24:57.485Z,2.30
2022-08-11T02:25:56.480Z,2.60
2022-08-11T02:26:56.498Z,2.50
2022-08-11T02:27:56.457Z,2.60
2022-08-11T02:28:56.456Z,2.90
2022-08-11T02:29:56.438Z,2.70
2022-08-11T02:30:56.429Z,2.70
2022-08-11T02:32:05.132Z,2.40
2022-08-11T02:32:57.430Z,2.70
2022-08-11T02:33:56.415Z,2.40
2022-08-11T02:34:59.411Z,2.50
2022-08-11T02:35:56.377Z,2.40
2022-08-11T02:36:56.383Z,2.30
2022-08-11T02:37:56.358Z,2.60
2022-08-11T02:38:56.348Z,2.40
2022-08-11T02:39:56.339Z,2.40
2022-08-11T02:40:56.334Z,2.40
2022-08-11T02:41:56.339Z,2.70
2022-08-11T02:42:56.298Z,2.50
2022-08-11T02:43:56.299Z,2.50
2022-08-11T02:44:56.288Z,2.60
2022-08-11T02:45:56.286Z,2.60
2022-08-11T02:46:56.291Z,2.50
2022-08-11T02:47:56.261Z,2.50
2022-08-11T02:48:56.252Z,2.60
2022-08-11T02:50:02.750Z,2.90
2022-08-11T02:50:57.224Z,2.50
2022-08-11T02:51:56.243Z,2.50
2022-08-11T02:52:56.218Z,2.80
2022-08-11T02:53:58.182Z,2.60
2022-08-11T02:54:56.209Z,2.50
2022-08-11T02:55:58.215Z,2.70
2022-08-11T02:56:56.192Z,2.40
2022-08-11T02:57:56.218Z,2.60
2022-08-11T02:58:56.148Z,2.60
2022-08-11T02:59:56.145Z,2.70
2022-08-11T03:00:56.132Z,2.70
2022-08-11T03:02:04.582Z,2.50
2022-08-11T03:02:57.112Z,2.80
2022-08-11T03:03:56.099Z,2.60
2022-08-11T03:04:56.102Z,2.50
2022-08-11T03:05:56.084Z,2.60
2022-08-11T03:06:56.097Z,2.50
2022-08-11T03:07:56.061Z,2.50
2022-08-11T03:08:56.053Z,2.60
2022-08-11T03:09:56.044Z,2.70
2022-08-11T03:10:56.033Z,2.70
2022-08-11T03:11:56.046Z,2.70
2022-08-11T03:12:56.040Z,2.50
2022-08-11T03:13:56.004Z,2.80
2022-08-11T03:14:55.985Z,2.70
2022-08-11T03:15:55.982Z,2.30
2022-08-11T03:16:55.967Z,2.80
2022-08-11T03:17:55.976Z,2.90
2022-08-11T03:18:55.936Z,2.50
2022-08-11T03:19:55.941Z,2.60
2022-08-11T03:20:55.928Z,2.50
2022-08-11T03:22:03.647Z,2.60
2022-08-11T03:22:56.920Z,2.70
2022-08-11T03:23:55.903Z,2.60
2022-08-11T03:24:55.890Z,2.80
2022-08-11T03:25:55.873Z,2.60
2022-08-11T03:26:55.865Z,2.80
2022-08-11T03:27:55.868Z,2.70
2022-08-11T03:28:55.848Z,2.70
2022-08-11T03:29:55.840Z,3.00
2022-08-11T03:30:55.824Z,2.60
2022-08-11T03:31:55.815Z,2.60
2022-08-11T03:32:55.828Z,2.60
2022-08-11T03:33:55.794Z,2.40
2022-08-11T03:34:55.776Z,2.70
2022-08-11T03:35:55.777Z,2.60
2022-08-11T03:37:16.786Z,2.70
2022-08-11T03:37:56.839Z,2.60
2022-08-11T03:38:55.750Z,2.70
2022-08-11T03:39:56.842Z,2.50
2022-08-11T03:40:55.725Z,2.90
2022-08-11T03:42:01.755Z,2.70
2022-08-11T03:42:56.724Z,2.70
2022-08-11T03:43:58.135Z,2.70
2022-08-11T03:44:55.683Z,2.80
2022-08-11T03:45:55.677Z,2.80
2022-08-11T03:46:55.650Z,2.80
2022-08-11T03:47:55.924Z,2.80
2022-08-11T03:48:55.640Z,2.70
2022-08-11T03:49:55.631Z,2.80
2022-08-11T03:50:55.817Z,2.80
2022-08-11T03:51:55.610Z,2.70
2022-08-11T03:52:55.621Z,2.60
2022-08-11T03:53:55.595Z,2.70
2022-08-11T03:54:55.576Z,2.70
2022-08-11T03:55:55.566Z,2.60
2022-08-11T03:56:55.561Z,2.70
2022-08-11T03:57:55.567Z,2.80
2022-08-11T03:58:55.535Z,2.90
2022-08-11T03:59:55.533Z,2.60
2022-08-11T04:00:55.529Z,2.90
2022-08-11T04:01:55.583Z,2.70
2022-08-11T04:02:55.520Z,2.80
2022-08-11T04:03:55.492Z,2.80
2022-08-11T04:04:55.487Z,2.60
2022-08-11T04:05:55.476Z,2.60
2022-08-11T04:06:55.466Z,2.80
2022-08-11T04:07:55.475Z,2.80
2022-08-11T04:08:55.444Z,2.70
2022-08-11T04:09:55.510Z,2.60
2022-08-11T04:11:27.334Z,2.90
2022-08-11T04:11:55.418Z,2.80
2022-08-11T04:12:55.443Z,2.70
2022-08-11T04:13:55.386Z,2.90
2022-08-11T04:14:55.384Z,2.80
2022-08-11T04:15:55.377Z,3.10
2022-08-11T04:16:55.369Z,2.90
2022-08-11T04:17:55.370Z,3.10
2022-08-11T04:18:55.344Z,3.20
2022-08-11T04:19:55.332Z,2.90
2022-08-11T04:20:55.324Z,3.30
2022-08-11T04:21:55.311Z,3.20
2022-08-11T04:22:55.326Z,3.00
2022-08-11T04:24:34.847Z,3.00
2022-08-11T04:24:56.288Z,2.90
2022-08-11T04:25:58.652Z,2.80
2022-08-11T04:26:55.266Z,3.00
2022-08-11T04:27:55.269Z,2.90
2022-08-11T04:28:55.242Z,3.10
2022-08-11T04:30:02.966Z,2.80
2022-08-11T04:30:56.225Z,2.90
2022-08-11T04:31:55.214Z,2.80
2022-08-11T04:32:55.224Z,2.80
2022-08-11T04:33:56.558Z,3.00
2022-08-11T04:34:55.182Z,3.00
2022-08-11T04:35:55.176Z,3.10
2022-08-11T04:36:55.162Z,3.10
2022-08-11T04:37:55.168Z,2.90
2022-08-11T04:38:55.161Z,3.00
2022-08-11T04:39:55.185Z,2.90
2022-08-11T04:40:55.122Z,3.00
2022-08-11T04:41:55.109Z,3.10
2022-08-11T04:42:55.114Z,3.10
2022-08-11T04:44:02.667Z,3.00
2022-08-11T04:44:56.106Z,2.80
2022-08-11T04:45:55.059Z,3.20
2022-08-11T04:46:55.065Z,3.10
2022-08-11T04:48:01.842Z,3.00
2022-08-11T04:48:56.061Z,3.10
2022-08-11T04:49:55.021Z,2.80
2022-08-11T04:51:04.005Z,2.90
2022-08-11T04:51:56.005Z,3.10
2022-08-11T04:52:54.997Z,3.00
2022-08-11T04:53:55.016Z,2.80
2022-08-11T04:54:54.976Z,3.00
2022-08-11T04:55:54.971Z,3.00
2022-08-11T04:56:54.956Z,2.90
2022-08-11T04:57:54.944Z,3.10
2022-08-11T04:58:54.953Z,3.10
2022-08-11T04:59:54.924Z,3.10
2022-08-11T05:00:54.923Z,3.10
2022-08-11T05:01:54.940Z,3.40
2022-08-11T05:02:54.897Z,3.20
2022-08-11T05:03:54.889Z,3.10
2022-08-11T05:04:54.886Z,3.40
2022-08-11T05:05:56.765Z,3.30
2022-08-11T05:06:54.854Z,3.40
2022-08-11T05:07:54.845Z,3.20
2022-08-11T05:08:54.849Z,3.30
2022-08-11T05:09:54.823Z,3.20
2022-08-11T05:10:54.810Z,3.30
2022-08-11T05:11:57.997Z,3.40
2022-08-11T05:12:54.787Z,3.00
2022-08-11T05:13:54.803Z,3.10
2022-08-11T05:14:54.773Z,3.20
2022-08-11T05:15:54.762Z,3.30
2022-08-11T05:16:54.743Z,3.20
2022-08-11T05:17:54.745Z,3.40
2022-08-11T05:18:54.730Z,3.10
2022-08-11T05:19:54.735Z,3.30
2022-08-11T05:20:54.715Z,3.00
2022-08-11T05:21:54.701Z,3.50
2022-08-11T05:22:55.192Z,3.20
2022-08-11T05:23:54.680Z,3.40
2022-08-11T05:24:54.678Z,3.10
2022-08-11T05:26:44.640Z,3.40
2022-08-11T05:26:55.652Z,3.20
2022-08-11T05:27:54.645Z,3.30
2022-08-11T05:28:54.655Z,3.10
2022-08-11T05:29:54.646Z,3.30
2022-08-11T05:30:54.609Z,3.30
2022-08-11T05:31:54.602Z,3.40
2022-08-11T05:32:59.343Z,3.20
2022-08-11T05:33:55.582Z,3.40
2022-08-11T05:34:54.814Z,3.40
2022-08-11T05:36:00.040Z,3.20
2022-08-11T05:36:59.193Z,3.30
2022-08-11T05:37:55.537Z,3.50
2022-08-11T05:38:54.535Z,3.20
2022-08-11T05:39:54.600Z,3.50
2022-08-11T05:41:00.107Z,3.50
2022-08-11T05:41:55.502Z,3.20
2022-08-11T05:42:54.489Z,3.20
2022-08-11T05:44:20.839Z,3.50
2022-08-11T05:44:55.476Z,3.30
2022-08-11T05:46:02.743Z,3.20
2022-08-11T05:46:55.449Z,3.10
2022-08-11T05:47:54.437Z,3.10
2022-08-11T05:48:54.430Z,3.00
2022-08-11T05:49:54.434Z,3.40
2022-08-11T05:50:54.405Z,3.50
2022-08-11T05:51:55.479Z,3.40
2022-08-11T05:52:56.617Z,3.40
2022-08-11T05:53:54.373Z,3.60
2022-08-11T05:54:54.629Z,3.40
2022-08-11T05:56:02.598Z,3.50
2022-08-11T05:56:54.346Z,3.20
2022-08-11T05:57:54.343Z,3.60
2022-08-11T05:58:54.341Z,3.50
2022-08-11T05:59:54.330Z,3.60
2022-08-11T06:00:54.307Z,3.20
2022-08-11T06:01:54.318Z,3.50
2022-08-11T06:02:54.289Z,3.50
2022-08-11T06:03:58.478Z,3.10
2022-08-11T06:04:54.284Z,3.50
2022-08-11T06:05:54.266Z,3.40
2022-08-11T06:06:54.251Z,3.40
2022-08-11T06:07:54.236Z,3.40
2022-08-11T06:08:54.225Z,3.50
2022-08-11T06:09:54.238Z,3.20
2022-08-11T06:10:54.201Z,3.20
2022-08-11T06:11:54.192Z,3.50
2022-08-11T06:12:55.187Z,3.10
2022-08-11T06:13:54.175Z,3.00
2022-08-11T06:14:54.191Z,3.60
2022-08-11T06:15:54.174Z,3.30
2022-08-11T06:16:54.145Z,3.30
2022-08-11T06:17:54.132Z,3.40
2022-08-11T06:18:54.136Z,3.40
2022-08-11T06:19:54.149Z,3.50
2022-08-11T06:20:54.106Z,3.40
2022-08-11T06:21:54.099Z,3.40
2022-08-11T06:22:54.092Z,3.40
2022-08-11T06:23:54.069Z,3.30
2022-08-11T06:24:55.078Z,3.40
2022-08-11T06:25:56.386Z,3.50
2022-08-11T06:27:12.825Z,3.30
2022-08-11T06:27:56.043Z,3.10
2022-08-11T06:28:54.014Z,3.20
2022-08-11T06:29:54.970Z,3.00
2022-08-11T06:30:54.009Z,3.20
2022-08-11T06:31:54.003Z,3.00
2022-08-11T06:32:53.986Z,2.80
2022-08-11T06:33:53.978Z,2.60
2022-08-11T06:34:53.982Z,2.50
2022-08-11T06:35:53.965Z,2.40
2022-08-11T06:36:53.941Z,2.60
2022-08-11T06:37:58.766Z,2.40
2022-08-11T06:38:54.930Z,2.40
2022-08-11T06:39:53.997Z,2.50
2022-08-11T06:40:53.900Z,2.60
2022-08-11T06:41:53.897Z,2.50
2022-08-11T06:42:53.899Z,2.70
2022-08-11T06:43:55.324Z,2.50
2022-08-11T06:44:53.871Z,2.50
2022-08-11T06:45:53.851Z,2.70
2022-08-11T06:46:53.841Z,2.60
2022-08-11T06:47:53.832Z,2.70
2022-08-11T06:48:53.814Z,2.50
2022-08-11T06:49:53.838Z,2.80
2022-08-11T06:50:53.797Z,2.70
2022-08-11T06:51:53.799Z,2.70
2022-08-11T06:52:53.774Z,2.90
2022-08-11T06:54:03.440Z,2.70
2022-08-11T06:54:54.775Z,2.60
2022-08-11T06:55:57.233Z,2.80
2022-08-11T06:57:06.635Z,2.70
2022-08-11T06:57:55.784Z,2.60
2022-08-11T06:58:53.770Z,2.50
2022-08-11T06:59:53.734Z,2.70
2022-08-11T07:00:53.708Z,2.60
2022-08-11T07:01:53.742Z,2.50
2022-08-11T07:02:53.690Z,2.60
2022-08-11T07:03:53.678Z,2.50
2022-08-11T07:04:53.675Z,2.60
2022-08-11T07:05:53.660Z,2.60
2022-08-11T07:06:53.657Z,2.30
2022-08-11T07:07:53.645Z,2.60
2022-08-11T07:08:53.643Z,2.50
2022-08-11T07:09:53.632Z,2.50
2022-08-11T07:10:53.605Z,2.40
2022-08-11T07:11:53.594Z,2.40
2022-08-11T07:12:53.602Z,2.30
2022-08-11T07:13:53.576Z,2.70
2022-08-11T07:14:59.926Z,2.50
2022-08-11T07:16:10.669Z,2.70
2022-08-11T07:16:54.555Z,2.60
2022-08-11T07:17:53.541Z,2.30
2022-08-11T07:18:53.522Z,2.60
2022-08-11T07:19:56.939Z,2.50
2022-08-11T07:20:53.510Z,2.40
2022-08-11T07:22:02.928Z,2.60
2022-08-11T07:22:54.496Z,2.50
2022-08-11T07:23:53.483Z,2.50
2022-08-11T07:25:01.712Z,2.40
2022-08-11T07:25:54.462Z,2.40
2022-08-11T07:26:53.452Z,2.40
2022-08-11T07:27:53.447Z,2.30
2022-08-11T07:28:53.435Z,2.40
2022-08-11T07:29:53.464Z,2.20
2022-08-11T07:30:54.120Z,2.60
2022-08-11T07:31:53.408Z,2.50
2022-08-11T07:32:53.395Z,2.30
2022-08-11T07:34:07.748Z,2.50
2022-08-11T07:34:54.395Z,2.30
2022-08-11T07:35:53.369Z,2.40
2022-08-11T07:36:53.366Z,2.50
2022-08-11T07:38:01.568Z,2.50
2022-08-11T07:38:54.343Z,2.60
2022-08-11T07:39:53.412Z,2.40
2022-08-11T07:40:53.315Z,2.30
2022-08-11T07:41:53.310Z,2.50
2022-08-11T07:42:53.295Z,2.20
2022-08-11T07:43:53.281Z,2.50
2022-08-11T07:44:53.291Z,2.40
2022-08-11T07:45:53.265Z,2.40
2022-08-11T07:46:53.262Z,2.50
2022-08-11T07:47:53.386Z,2.50
2022-08-11T07:48:53.244Z,2.40
2022-08-11T07:49:53.272Z,2.40
2022-08-11T07:50:56.114Z,2.50
2022-08-11T07:51:54.200Z,2.30
2022-08-11T07:52:53.974Z,2.40
2022-08-11T07:53:58.672Z,2.80
2022-08-11T07:54:54.189Z,2.70
2022-08-11T07:55:53.528Z,2.20
2022-08-11T07:56:55.245Z,2.50
2022-08-11T07:58:15.090Z,2.40
2022-08-11T07:58:57.598Z,2.50
2022-08-11T08:00:00.906Z,2.50
2022-08-11T08:00:54.112Z,2.50
2022-08-11T08:01:53.146Z,2.50
2022-08-11T08:02:54.098Z,2.20
2022-08-11T08:03:53.932Z,2.40
2022-08-11T08:04:53.083Z,2.30
2022-08-11T08:05:53.067Z,2.20
2022-08-11T08:06:53.069Z,2.40
2022-08-11T08:07:53.785Z,2.40
2022-08-11T08:08:53.035Z,2.30
2022-08-11T08:09:53.043Z,2.40
2022-08-11T08:10:53.010Z,2.50
2022-08-11T08:11:52.992Z,2.20
2022-08-11T08:12:52.998Z,2.70
2022-08-11T08:13:52.990Z,2.30
2022-08-11T08:14:52.994Z,2.40
2022-08-11T08:15:52.955Z,2.30
2022-08-11T08:16:52.952Z,2.30
2022-08-11T08:18:09.041Z,2.30
2022-08-11T08:18:53.935Z,2.40
2022-08-11T08:19:52.928Z,2.50
2022-08-11T08:20:52.913Z,2.50
2022-08-11T08:21:52.906Z,2.60
2022-08-11T08:22:53.346Z,2.30
2022-08-11T08:23:53.928Z,2.50
2022-08-11T08:24:52.890Z,3.00
2022-08-11T08:25:52.860Z,2.40
2022-08-11T08:26:52.853Z,2.40
2022-08-11T08:27:52.825Z,2.60
2022-08-11T08:28:52.830Z,2.40
2022-08-11T08:29:52.835Z,2.50
2022-08-11T08:30:52.813Z,2.60
2022-08-11T08:31:52.798Z,2.50
2022-08-11T08:32:52.786Z,2.70
2022-08-11T08:33:52.790Z,2.60
2022-08-11T08:34:52.788Z,2.60
2022-08-11T08:35:55.611Z,2.50
2022-08-11T08:36:52.753Z,2.60
2022-08-11T08:37:52.739Z,2.70
2022-08-11T08:38:52.733Z,2.60
2022-08-11T08:39:52.766Z,2.60
2022-08-11T08:40:55.629Z,2.50
2022-08-11T08:41:52.692Z,2.50
2022-08-11T08:42:52.681Z,2.70
2022-08-11T08:43:52.691Z,3.10
2022-08-11T08:44:52.677Z,2.60
2022-08-11T08:45:52.652Z,2.60
2022-08-11T08:46:52.642Z,2.50
2022-08-11T08:47:53.495Z,2.80
2022-08-11T08:48:53.582Z,2.60
2022-08-11T08:49:52.626Z,2.50
2022-08-11T08:50:52.601Z,3.00
2022-08-11T08:52:02.575Z,2.80
2022-08-11T08:52:53.586Z,2.50
2022-08-11T08:53:53.744Z,2.70
2022-08-11T08:54:53.577Z,2.80
2022-08-11T08:55:52.562Z,2.70
2022-08-11T08:56:52.550Z,2.40
2022-08-11T08:57:52.546Z,2.70
2022-08-11T08:58:52.531Z,3.00
2022-08-11T08:59:52.541Z,2.50
2022-08-11T09:00:52.553Z,2.70
2022-08-11T09:01:52.506Z,2.70
2022-08-11T09:02:52.603Z,2.60
2022-08-11T09:04:05.413Z,2.60
2022-08-11T09:04:53.494Z,2.50
2022-08-11T09:05:52.466Z,2.50
2022-08-11T09:06:52.546Z,2.60
2022-08-11T09:07:52.441Z,3.00
2022-08-11T09:08:52.481Z,2.90
2022-08-11T09:09:52.450Z,2.80
2022-08-11T09:10:52.402Z,2.70
2022-08-11T09:11:52.415Z,2.80
2022-08-11T09:12:52.396Z,2.80
2022-08-11T09:14:03.302Z,2.60
2022-08-11T09:14:53.391Z,2.70
2022-08-11T09:15:56.250Z,2.80
2022-08-11T09:16:53.357Z,2.80
2022-08-11T09:17:52.347Z,2.90
2022-08-11T09:18:52.338Z,2.80
2022-08-11T09:19:56.600Z,2.90
2022-08-11T09:20:53.325Z,2.70
2022-08-11T09:21:52.301Z,3.20
2022-08-11T09:23:19.312Z,2.90
2022-08-11T09:24:16.882Z,2.90
2022-08-11T09:24:54.292Z,2.80
2022-08-11T09:25:52.257Z,3.00
2022-08-11T09:26:52.268Z,3.00
2022-08-11T09:27:52.251Z,2.70
2022-08-11T09:28:52.241Z,2.90
2022-08-11T09:29:52.231Z,2.80
2022-08-11T09:30:52.228Z,3.00
2022-08-11T09:31:52.223Z,3.00
2022-08-11T09:32:52.204Z,3.00
2022-08-11T09:33:52.189Z,3.00
2022-08-11T09:34:54.007Z,3.30
2022-08-11T09:35:52.196Z,3.20
2022-08-11T09:36:52.199Z,3.30
2022-08-11T09:37:54.104Z,3.50
2022-08-11T09:38:52.135Z,3.60
2022-08-11T09:39:52.192Z,3.30
2022-08-11T09:40:56.287Z,3.10
2022-08-11T09:42:00.707Z,3.10
2022-08-11T09:42:52.123Z,2.90
2022-08-11T09:43:52.100Z,3.20
2022-08-11T09:44:52.111Z,3.20
2022-08-11T09:45:52.094Z,2.80
2022-08-11T09:46:52.070Z,3.00
2022-08-11T09:47:52.068Z,3.00
2022-08-11T09:48:52.046Z,2.80
2022-08-11T09:49:52.037Z,2.90
2022-08-11T09:50:52.037Z,2.90
2022-08-11T09:52:02.222Z,3.10
2022-08-11T09:53:35.123Z,3.00
2022-08-11T09:54:03.843Z,2.90
2022-08-11T09:54:51.979Z,3.00
2022-08-11T09:55:52.022Z,2.90
2022-08-11T09:56:51.973Z,2.90
2022-08-11T09:57:51.951Z,2.90
2022-08-11T09:58:51.941Z,3.00
2022-08-11T09:59:51.943Z,2.90
2022-08-11T10:00:53.018Z,3.00
2022-08-11T10:01:51.923Z,3.00
2022-08-11T10:02:53.163Z,3.00
2022-08-11T10:03:51.904Z,2.90
2022-08-11T10:04:51.907Z,2.70
2022-08-11T10:05:51.893Z,2.80
2022-08-11T10:06:54.435Z,2.90
2022-08-11T10:07:51.870Z,2.90
2022-08-11T10:08:51.857Z,3.10
2022-08-11T10:09:51.847Z,2.70
2022-08-11T10:11:23.747Z,2.80
2022-08-11T10:11:57.639Z,3.00
2022-08-11T10:12:52.818Z,3.00
2022-08-11T10:14:33.552Z,3.10
2022-08-11T10:14:52.817Z,3.10
2022-08-11T10:16:03.564Z,2.90
2022-08-11T10:16:52.799Z,2.90
2022-08-11T10:17:51.761Z,2.90
2022-08-11T10:18:51.759Z,2.90
2022-08-11T10:20:05.032Z,2.90
2022-08-11T10:20:52.763Z,3.20
2022-08-11T10:21:51.746Z,2.90
2022-08-11T10:22:51.779Z,2.80
2022-08-11T10:24:00.266Z,2.90
2022-08-11T10:24:52.701Z,2.70
2022-08-11T10:25:51.693Z,2.80
2022-08-11T10:26:51.686Z,2.90
2022-08-11T10:28:28.350Z,2.80
2022-08-11T10:29:12.199Z,2.90
2022-08-11T10:29:53.653Z,3.00
2022-08-11T10:30:51.656Z,3.10
2022-08-11T10:31:57.485Z,3.10
2022-08-11T10:32:59.347Z,2.80
2022-08-11T10:33:59.107Z,2.70
2022-08-11T10:34:56.330Z,3.00
2022-08-11T10:35:52.618Z,3.00
2022-08-11T10:36:51.595Z,2.80
2022-08-11T10:38:07.305Z,2.80
2022-08-11T10:38:52.565Z,3.10
2022-08-11T10:39:51.617Z,3.10
2022-08-11T10:40:51.571Z,2.80
2022-08-11T10:42:06.124Z,2.90
2022-08-11T10:42:57.693Z,3.00
2022-08-11T10:44:03.307Z,2.80
2022-08-11T10:44:52.514Z,2.80
2022-08-11T10:45:51.548Z,2.80
2022-08-11T10:46:51.485Z,2.70
2022-08-11T10:47:51.475Z,2.60
2022-08-11T10:48:51.476Z,2.90
2022-08-11T10:49:51.462Z,3.00
2022-08-11T10:50:51.464Z,2.90
2022-08-11T10:51:53.808Z,2.90
2022-08-11T10:52:51.449Z,2.90
2022-08-11T10:53:51.421Z,2.90
2022-08-11T10:54:51.429Z,2.90
2022-08-11T10:55:51.410Z,3.10
2022-08-11T10:56:51.396Z,2.90
2022-08-11T10:58:04.598Z,2.90
2022-08-11T10:58:52.379Z,2.90
2022-08-11T10:59:51.382Z,2.70
2022-08-11T11:00:51.397Z,2.80
2022-08-11T11:01:51.345Z,3.10
2022-08-11T11:03:16.815Z,3.00
2022-08-11T11:03:52.324Z,2.60
2022-08-11T11:04:51.406Z,2.60
2022-08-11T11:06:27.405Z,2.70
2022-08-11T11:06:52.295Z,2.90
2022-08-11T11:07:51.288Z,2.70
2022-08-11T11:08:51.285Z,2.80
2022-08-11T11:09:51.272Z,3.00
2022-08-11T11:10:51.260Z,2.60
2022-08-11T11:11:51.256Z,2.70
2022-08-11T11:12:51.238Z,3.00
2022-08-11T11:13:55.108Z,2.50
2022-08-11T11:14:58.115Z,2.60
2022-08-11T11:15:53.227Z,3.00
2022-08-11T11:16:51.199Z,2.80
2022-08-11T11:17:51.186Z,2.80
2022-08-11T11:19:00.607Z,3.00
2022-08-11T11:19:52.161Z,3.10
2022-08-11T11:20:51.177Z,2.70
2022-08-11T11:21:51.150Z,2.90
2022-08-11T11:22:51.135Z,2.80
2022-08-11T11:23:51.126Z,3.00
2022-08-11T11:24:51.135Z,2.80
2022-08-11T11:25:55.446Z,3.30
2022-08-11T11:26:51.099Z,3.00
2022-08-11T11:27:51.088Z,2.80
2022-08-11T11:28:51.074Z,3.00
2022-08-11T11:29:51.059Z,2.80
2022-08-11T11:30:51.094Z,3.00
2022-08-11T11:31:51.051Z,2.80
2022-08-11T11:32:51.040Z,2.90
2022-08-11T11:34:06.359Z,2.90
2022-08-11T11:34:53.612Z,3.00
2022-08-11T11:35:51.029Z,3.00
2022-08-11T11:36:50.997Z,2.90
2022-08-11T11:38:03.579Z,3.30
2022-08-11T11:38:51.982Z,3.20
2022-08-11T11:39:51.008Z,3.00
2022-08-11T11:40:50.982Z,3.20
2022-08-11T11:41:50.954Z,3.20
2022-08-11T11:42:50.939Z,3.00
2022-08-11T11:43:50.930Z,3.10
2022-08-11T11:44:55.316Z,2.90
2022-08-11T11:45:51.935Z,3.10
2022-08-11T11:46:50.905Z,3.00
2022-08-11T11:47:50.897Z,2.90
2022-08-11T11:48:50.880Z,3.00
2022-08-11T11:49:50.863Z,3.10
2022-08-11T11:50:52.191Z,3.00
2022-08-11T11:51:50.854Z,3.00
2022-08-11T11:52:50.853Z,2.90
2022-08-11T11:53:50.825Z,3.00
2022-08-11T11:54:50.826Z,3.30
2022-08-11T11:55:50.832Z,3.10
2022-08-11T11:56:50.804Z,3.00
2022-08-11T11:57:58.741Z,3.10
2022-08-11T11:58:50.784Z,3.10
2022-08-11T11:59:50.774Z,3.00
2022-08-11T12:00:50.784Z,2.90
2022-08-11T12:01:52.804Z,3.00
2022-08-11T12:02:50.777Z,2.70
2022-08-11T12:03:50.738Z,3.10
2022-08-11T12:04:50.722Z,3.00
2022-08-11T12:05:50.725Z,2.90
2022-08-11T12:06:50.697Z,3.10
2022-08-11T12:07:56.978Z,2.80
2022-08-11T12:08:51.687Z,3.00
2022-08-11T12:09:50.672Z,3.00
2022-08-11T12:10:50.678Z,2.80
2022-08-11T12:11:50.669Z,3.10
2022-08-11T12:12:50.643Z,3.00
2022-08-11T12:13:50.626Z,3.10
2022-08-11T12:14:50.619Z,3.00
2022-08-11T12:16:31.987Z,3.10
2022-08-11T12:16:51.595Z,3.00
2022-08-11T12:17:52.816Z,2.70
2022-08-11T12:18:51.899Z,3.10
2022-08-11T12:19:50.577Z,3.00
2022-08-11T12:20:50.584Z,3.10
2022-08-11T12:21:51.456Z,2.70
2022-08-11T12:22:50.541Z,2.90
2022-08-11T12:23:50.532Z,3.00
2022-08-11T12:24:50.516Z,2.90
2022-08-11T12:26:10.043Z,3.00
2022-08-11T12:27:14.884Z,2.90
2022-08-11T12:27:51.498Z,3.00
2022-08-11T12:28:50.487Z,3.10
2022-08-11T12:29:55.322Z,2.70
2022-08-11T12:30:53.764Z,3.00
2022-08-11T12:31:50.457Z,2.90
2022-08-11T12:32:50.444Z,2.80
2022-08-11T12:33:50.430Z,2.70
2022-08-11T12:34:50.453Z,2.90
2022-08-11T12:36:00.547Z,3.00
2022-08-11T12:36:51.404Z,3.00
2022-08-11T12:37:50.391Z,2.80
2022-08-11T12:38:51.286Z,2.90
2022-08-11T12:40:16.047Z,2.90
2022-08-11T12:41:16.133Z,2.90
2022-08-11T12:41:51.399Z,2.80
2022-08-11T12:42:55.629Z,3.10
2022-08-11T12:43:56.832Z,2.90
2022-08-11T12:44:51.357Z,2.90
2022-08-11T12:45:50.325Z,2.80
2022-08-11T12:46:50.311Z,2.80
2022-08-11T12:48:42.535Z,3.00
2022-08-11T12:48:59.455Z,3.10
2022-08-11T12:49:51.275Z,3.00
2022-08-11T12:50:50.285Z,3.00
2022-08-11T12:52:12.173Z,2.90
2022-08-11T12:52:51.262Z,2.90
2022-08-11T12:53:50.252Z,2.70
2022-08-11T12:54:50.262Z,2.90
2022-08-11T12:56:03.533Z,3.00
2022-08-11T12:56:51.218Z,3.10
2022-08-11T12:57:50.489Z,2.70
2022-08-11T12:58:50.200Z,2.80
2022-08-11T12:59:50.208Z,2.80
2022-08-11T13:00:50.219Z,3.00
2022-08-11T13:01:50.171Z,3.00
2022-08-11T13:02:50.155Z,2.90
2022-08-11T13:03:52.535Z,2.80
2022-08-11T13:04:51.165Z,2.80
2022-08-11T13:05:50.147Z,2.80
2022-08-11T13:06:50.121Z,2.90
2022-08-11T13:07:51.223Z,3.00
2022-08-11T13:08:50.107Z,2.90
2022-08-11T13:09:50.098Z,2.90
2022-08-11T13:10:50.090Z,3.00
2022-08-11T13:11:56.198Z,2.70
2022-08-11T13:12:51.057Z,3.20
2022-08-11T13:13:52.829Z,2.90
2022-08-11T13:14:51.065Z,3.10
2022-08-11T13:15:50.044Z,2.90
2022-08-11T13:16:50.023Z,2.80
2022-08-11T13:17:50.024Z,2.90
2022-08-11T13:18:50.009Z,2.90